createdAt,value
2023-03-26T00:01:14.008Z,99999.22
2023-03-26T00:03:40.939Z,100005.38
2023-03-26T00:06:09.778Z,100003.69
2023-03-26T00:08:37.254Z,99994.94
2023-03-26T00:11:04.638Z,99991.38
2023-03-26T00:13:32.217Z,99994.94
2023-03-26T00:15:59.064Z,99988.88
2023-03-26T00:18:30.206Z,99995.09
2023-03-26T00:20:58.089Z,99996.91
2023-03-26T00:23:25.060Z,99988.97
2023-03-26T00:25:51.879Z,99994.25
2023-03-26T00:28:21.551Z,99996.03
2023-03-26T00:30:57.063Z,99990.81
2023-03-26T00:33:23.925Z,99990.81
2023-03-26T00:35:58.806Z,99991.66
2023-03-26T00:38:25.907Z,99992.50
2023-03-26T00:40:52.625Z,99999.59
2023-03-26T00:43:19.730Z,99984.66
2023-03-26T00:45:49.620Z,99988.31
2023-03-26T00:48:16.821Z,99986.53
2023-03-26T00:50:44.488Z,99979.44
2023-03-26T00:53:14.354Z,99983.88
2023-03-26T00:55:45.246Z,99973.34
2023-03-26T00:58:12.791Z,99973.34
2023-03-26T01:00:48.376Z,99962.00
2023-03-26T01:03:24.806Z,99957.63
2023-03-26T01:06:04.858Z,99960.28
2023-03-26T01:08:46.710Z,99957.69
2023-03-26T01:11:25.899Z,99968.28
2023-03-26T01:14:31.173Z,99960.34
2023-03-26T01:17:01.974Z,99959.50
2023-03-26T01:19:31.708Z,99956.94
2023-03-26T01:21:58.932Z,99971.97
2023-03-26T01:24:25.648Z,99972.03
2023-03-26T01:27:09.692Z,99964.09
2023-03-26T01:29:57.066Z,99968.50
2023-03-26T01:32:23.600Z,99966.75
2023-03-26T01:35:01.618Z,99968.59
2023-03-26T01:37:52.605Z,99974.75
2023-03-26T01:40:38.639Z,99969.53
2023-03-26T01:43:29.003Z,99973.13
2023-03-26T01:45:56.619Z,99975.75
2023-03-26T01:48:30.736Z,99984.66
2023-03-26T01:50:58.926Z,99980.22
2023-03-26T01:53:25.652Z,99980.25
2023-03-26T01:56:18.400Z,99972.31
2023-03-26T01:59:03.424Z,99972.31
2023-03-26T02:01:33.253Z,99973.25
2023-03-26T02:04:11.238Z,99976.84
2023-03-26T02:06:51.612Z,99983.00
2023-03-26T02:09:22.383Z,99983.94
2023-03-26T02:11:49.003Z,99988.38
2023-03-26T02:14:15.820Z,99980.47
2023-03-26T02:16:47.102Z,99985.72
2023-03-26T02:19:21.842Z,99992.81
2023-03-26T02:21:52.141Z,99993.66
2023-03-26T02:24:19.551Z,99998.97
2023-03-26T02:26:46.132Z,99991.91
2023-03-26T02:29:14.045Z,99989.34
2023-03-26T02:31:41.052Z,99990.22
2023-03-26T02:34:07.846Z,99996.44
2023-03-26T02:36:36.037Z,99985.84
2023-03-26T02:39:02.909Z,99988.50
2023-03-26T02:41:29.516Z,99986.78
2023-03-26T02:43:56.123Z,99980.66
2023-03-26T02:46:22.771Z,99974.47
2023-03-26T02:48:49.895Z,99974.47
2023-03-26T02:51:18.237Z,99970.09
2023-03-26T02:53:44.889Z,99969.22
2023-03-26T02:56:12.583Z,99969.22
2023-03-26T02:58:39.284Z,99958.66
2023-03-26T03:01:05.988Z,99955.22
2023-03-26T03:03:32.682Z,99960.53
2023-03-26T03:05:59.448Z,99964.97
2023-03-26T03:08:26.801Z,99972.94
2023-03-26T03:11:02.227Z,99975.69
2023-03-26T03:13:28.958Z,99969.44
2023-03-26T03:15:56.106Z,99971.34
2023-03-26T03:18:23.042Z,99968.69
2023-03-26T03:20:49.973Z,99973.13
2023-03-26T03:23:16.737Z,99969.63
2023-03-26T03:25:43.431Z,99970.53
2023-03-26T03:28:10.468Z,99973.16
2023-03-26T03:30:37.112Z,99973.25
2023-03-26T03:33:03.961Z,99974.97
2023-03-26T03:35:30.627Z,99974.12
2023-03-26T03:37:58.043Z,99972.41
2023-03-26T03:40:24.710Z,99971.56
2023-03-26T03:42:51.594Z,99962.75
2023-03-26T03:45:18.417Z,99969.84
2023-03-26T03:47:45.069Z,99979.56
2023-03-26T03:50:11.895Z,99979.56
2023-03-26T03:52:38.480Z,99992.00
2023-03-26T03:55:05.526Z,99987.66
2023-03-26T03:57:33.531Z,99992.09
2023-03-26T04:00:00.204Z,99985.94
2023-03-26T04:02:30.469Z,99988.59
2023-03-26T04:05:00.137Z,99992.94
2023-03-26T04:07:27.680Z,99990.38
2023-03-26T04:09:54.361Z,99992.16
2023-03-26T04:12:20.977Z,99995.72
2023-03-26T04:14:48.246Z,100000.09
2023-03-26T04:17:15.493Z,99997.50
2023-03-26T04:19:44.232Z,99994.84
2023-03-26T04:22:12.018Z,99999.28
2023-03-26T04:24:40.187Z,100004.59
2023-03-26T04:27:08.899Z,99993.16
2023-03-26T04:29:42.939Z,99993.22
2023-03-26T04:32:29.966Z,99987.09
2023-03-26T04:35:00.226Z,99984.44
2023-03-26T04:37:39.593Z,99980.06
2023-03-26T04:40:12.432Z,99981.84
2023-03-26T04:42:41.706Z,99985.44
2023-03-26T04:45:09.169Z,99984.56
2023-03-26T04:47:37.157Z,100003.94
2023-03-26T04:50:05.012Z,100003.09
2023-03-26T04:52:31.814Z,100008.38
2023-03-26T04:54:58.400Z,100001.38
2023-03-26T04:57:38.952Z,99997.88
2023-03-26T05:00:20.394Z,100001.31
2023-03-26T05:02:50.503Z,99998.12
2023-03-26T05:05:17.799Z,100002.38
2023-03-26T05:07:44.472Z,99996.28
2023-03-26T05:10:13.187Z,99993.72
2023-03-26T05:12:39.835Z,99989.44
2023-03-26T05:15:07.002Z,99986.00
2023-03-26T05:17:34.967Z,99986.88
2023-03-26T05:20:01.870Z,99991.06
2023-03-26T05:22:28.469Z,99976.56
2023-03-26T05:24:55.056Z,99989.69
2023-03-26T05:27:21.752Z,99995.13
2023-03-26T05:29:48.363Z,99985.63
2023-03-26T05:32:15.044Z,99986.94
2023-03-26T05:34:41.821Z,99989.97
2023-03-26T05:37:09.284Z,99988.81
2023-03-26T05:39:35.920Z,99982.28
2023-03-26T05:42:02.753Z,99982.88
2023-03-26T05:44:29.505Z,99978.16
2023-03-26T05:46:56.094Z,99987.66
2023-03-26T05:49:22.735Z,99985.69
2023-03-26T05:51:49.374Z,99985.41
2023-03-26T05:54:16.022Z,99982.56
2023-03-26T05:56:42.624Z,99996.44
2023-03-26T05:59:09.272Z,99995.44
2023-03-26T06:01:35.871Z,99986.37
2023-03-26T06:04:02.564Z,99994.13
2023-03-26T06:06:29.976Z,99985.16
2023-03-26T06:09:01.956Z,99984.03
2023-03-26T06:11:30.330Z,99990.00
2023-03-26T06:13:56.893Z,99983.66
2023-03-26T06:16:27.269Z,99976.38
2023-03-26T06:18:56.337Z,99981.47
2023-03-26T06:21:24.098Z,99977.91
2023-03-26T06:23:51.770Z,99971.53
2023-03-26T06:26:18.562Z,99977.63
2023-03-26T06:28:45.300Z,99977.53
2023-03-26T06:31:12.058Z,99984.53
2023-03-26T06:33:38.750Z,99972.09
2023-03-26T06:36:05.963Z,99980.09
2023-03-26T06:38:32.645Z,99971.16
2023-03-26T06:41:03.512Z,99966.62
2023-03-26T06:43:33.783Z,99978.94
2023-03-26T06:46:01.419Z,99970.97
2023-03-26T06:48:28.025Z,99976.97
2023-03-26T06:50:54.913Z,99979.53
2023-03-26T06:53:21.759Z,99967.03
2023-03-26T06:55:48.404Z,99982.75
2023-03-26T06:58:14.962Z,99972.97
2023-03-26T07:00:42.383Z,99974.62
2023-03-26T07:03:09.850Z,99973.56
2023-03-26T07:05:36.510Z,99965.41
2023-03-26T07:08:05.567Z,99969.69
2023-03-26T07:10:32.343Z,99966.94
2023-03-26T07:13:00.300Z,99963.16
2023-03-26T07:15:28.305Z,99954.09
2023-03-26T07:17:55.547Z,99956.69
2023-03-26T07:20:22.290Z,99961.72
2023-03-26T07:22:49.303Z,99964.28
2023-03-26T07:25:16.492Z,99959.66
2023-03-26T07:27:58.378Z,99962.91
2023-03-26T07:30:47.523Z,99962.69
2023-03-26T07:33:21.678Z,99967.72
2023-03-26T07:35:54.420Z,99972.84
2023-03-26T07:38:36.304Z,99971.72
2023-03-26T07:41:17.775Z,99974.94
2023-03-26T07:43:57.471Z,99982.62
2023-03-26T07:46:37.004Z,99980.53
2023-03-26T07:49:05.082Z,99981.09
2023-03-26T07:51:32.587Z,99981.75
2023-03-26T07:54:00.781Z,99974.34
2023-03-26T07:56:58.665Z,99971.37
2023-03-26T07:59:27.939Z,99978.31
2023-03-26T08:02:13.165Z,99978.13
2023-03-26T08:05:18.988Z,99987.50
2023-03-26T08:07:57.793Z,99984.56
2023-03-26T08:10:32.836Z,99979.22
2023-03-26T08:13:29.001Z,99983.88
2023-03-26T08:16:10.310Z,99988.56
2023-03-26T08:18:58.141Z,99973.75
2023-03-26T08:22:03.824Z,99983.63
2023-03-26T08:24:47.929Z,99976.59
2023-03-26T08:27:27.532Z,99970.44
2023-03-26T08:30:02.156Z,99965.28
2023-03-26T08:32:28.903Z,99978.69
2023-03-26T08:34:57.477Z,99977.06
2023-03-26T08:37:24.143Z,99976.16
2023-03-26T08:39:50.891Z,99959.31
2023-03-26T08:42:32.086Z,99974.41
2023-03-26T08:45:23.088Z,99977.97
2023-03-26T08:48:09.225Z,99976.16
2023-03-26T08:50:55.606Z,99967.31
2023-03-26T08:53:42.557Z,99964.66
2023-03-26T08:56:16.806Z,99959.31
2023-03-26T08:58:47.912Z,99954.00
2023-03-26T09:01:26.696Z,99957.59
2023-03-26T09:04:27.120Z,99957.69
2023-03-26T09:06:59.741Z,99948.19
2023-03-26T09:10:02.097Z,99953.81
2023-03-26T09:12:47.153Z,99947.63
2023-03-26T09:15:28.743Z,99952.22
2023-03-26T09:18:14.196Z,99940.91
2023-03-26T09:21:11.498Z,99952.59
2023-03-26T09:24:14.136Z,99944.81
2023-03-26T09:26:51.025Z,99938.09
2023-03-26T09:29:43.776Z,99936.56
2023-03-26T09:32:24.295Z,99935.16
2023-03-26T09:35:09.930Z,99931.91
2023-03-26T09:37:58.863Z,99926.00
2023-03-26T09:40:35.330Z,99934.34
2023-03-26T09:43:32.947Z,99921.22
2023-03-26T09:46:41.277Z,99909.97
2023-03-26T09:49:25.283Z,99918.22
2023-03-26T09:51:55.507Z,99909.47
2023-03-26T09:54:37.132Z,99914.78
2023-03-26T09:57:22.606Z,99903.97
2023-03-26T09:59:59.064Z,99909.97
2023-03-26T10:02:45.463Z,99900.19
2023-03-26T10:05:48.876Z,99896.56
2023-03-26T10:08:32.937Z,99886.87
2023-03-26T10:11:10.102Z,99881.66
2023-03-26T10:14:01.316Z,99872.25
2023-03-26T10:16:56.412Z,99853.84
2023-03-26T10:19:26.164Z,99861.16
2023-03-26T10:22:12.309Z,99865.06
2023-03-26T10:24:59.660Z,99858.31
2023-03-26T10:27:54.703Z,99856.87
2023-03-26T10:30:48.672Z,99853.63
2023-03-26T10:33:52.888Z,99860.09
2023-03-26T10:36:35.697Z,99868.34
2023-03-26T10:39:36.836Z,99881.94
2023-03-26T10:42:40.838Z,99890.09
2023-03-26T10:45:41.227Z,99877.06
2023-03-26T10:48:10.835Z,99856.84
2023-03-26T10:50:52.865Z,99850.78
2023-03-26T10:53:31.279Z,99852.59
2023-03-26T10:56:13.657Z,99854.28
2023-03-26T10:58:48.291Z,99843.66
2023-03-26T11:01:43.413Z,99844.69
2023-03-26T11:04:28.654Z,99837.66
2023-03-26T11:07:36.738Z,99818.31
2023-03-26T11:10:33.554Z,99817.53
2023-03-26T11:13:16.672Z,99820.41
2023-03-26T11:15:45.785Z,99809.00
2023-03-26T11:18:12.474Z,99806.53
2023-03-26T11:20:42.139Z,99804.91
2023-03-26T11:23:29.244Z,99794.50
2023-03-26T11:25:55.708Z,99788.28
2023-03-26T11:29:03.915Z,99786.69
2023-03-26T11:31:56.852Z,99772.56
2023-03-26T11:34:26.174Z,99770.09
2023-03-26T11:36:54.355Z,99764.87
2023-03-26T11:39:26.152Z,99766.69
2023-03-26T11:41:55.605Z,99758.91
2023-03-26T11:44:30.633Z,99750.19
2023-03-26T11:46:59.051Z,99744.09
2023-03-26T11:49:26.290Z,99743.25
2023-03-26T11:51:53.577Z,99735.28
2023-03-26T11:54:21.109Z,99738.03
2023-03-26T11:57:06.022Z,99730.06
2023-03-26T11:59:53.339Z,99717.66
2023-03-26T12:02:32.665Z,99722.19
2023-03-26T12:05:20.511Z,99703.59
2023-03-26T12:07:52.441Z,99699.25
2023-03-26T12:10:23.377Z,99678.12
2023-03-26T12:12:51.047Z,99681.72
2023-03-26T12:15:19.160Z,99672.97
2023-03-26T12:17:47.075Z,99664.28
2023-03-26T12:20:26.105Z,99667.88
2023-03-26T12:22:59.584Z,99666.16
2023-03-26T12:25:33.937Z,99653.00
2023-03-26T12:28:02.977Z,99646.81
2023-03-26T12:30:33.974Z,99647.78
2023-03-26T12:33:03.703Z,99648.75
2023-03-26T12:35:35.007Z,99641.69
2023-03-26T12:38:23.498Z,99637.34
2023-03-26T12:43:19.754Z,99629.38
2023-03-26T12:44:55.339Z,99615.38
2023-03-26T12:48:01.473Z,99604.75
2023-03-26T12:50:14.791Z,99603.13
2023-03-26T12:52:47.455Z,99598.78
2023-03-26T12:55:56.714Z,99594.31
2023-03-26T12:59:02.334Z,99595.38
2023-03-26T13:01:38.996Z,99586.53
2023-03-26T13:04:26.804Z,99592.78
2023-03-26T13:07:10.799Z,99585.78
2023-03-26T13:09:53.175Z,99587.59
2023-03-26T13:12:35.559Z,99585.97
2023-03-26T13:15:07.989Z,99581.50
2023-03-26T13:17:42.772Z,99563.03
2023-03-26T13:20:19.042Z,99561.34
2023-03-26T13:22:55.465Z,99553.38
2023-03-26T13:25:28.173Z,99546.38
2023-03-26T13:28:07.923Z,99549.03
2023-03-26T13:30:49.241Z,99539.44
2023-03-26T13:33:45.270Z,99539.44
2023-03-26T13:36:42.864Z,99525.44
2023-03-26T13:39:30.831Z,99529.91
2023-03-26T13:42:22.505Z,99527.31
2023-03-26T13:45:05.091Z,99510.53
2023-03-26T13:47:35.309Z,99506.16
2023-03-26T13:50:14.739Z,99507.03
2023-03-26T13:52:46.189Z,99510.53
2023-03-26T13:55:22.448Z,99507.13
2023-03-26T13:58:02.027Z,99510.72
2023-03-26T14:00:54.389Z,99497.47
2023-03-26T14:03:29.116Z,99491.28
2023-03-26T14:05:57.080Z,99482.47
2023-03-26T14:08:36.833Z,99481.72
2023-03-26T14:11:10.911Z,99482.69
2023-03-26T14:13:43.468Z,99472.09
2023-03-26T14:16:19.421Z,99466.78
2023-03-26T14:19:08.882Z,99464.97
2023-03-26T14:21:48.885Z,99465.94
2023-03-26T14:24:31.673Z,99463.34
2023-03-26T14:27:28.174Z,99453.69
2023-03-26T14:30:28.947Z,99446.59
2023-03-26T14:33:14.171Z,99450.31
2023-03-26T14:35:58.287Z,99451.22
2023-03-26T14:38:46.306Z,99445.06
2023-03-26T14:41:29.729Z,99444.22
2023-03-26T14:44:11.720Z,99440.81
2023-03-26T14:47:14.758Z,99433.72
2023-03-26T14:50:06.516Z,99433.84
2023-03-26T14:52:52.015Z,99430.41
2023-03-26T14:55:24.618Z,99423.41
2023-03-26T14:57:57.344Z,99418.09
2023-03-26T15:00:51.215Z,99422.63
2023-03-26T15:03:59.751Z,99409.38
2023-03-26T15:06:51.092Z,99404.06
2023-03-26T15:09:29.848Z,99396.22
2023-03-26T15:12:21.361Z,99398.87
2023-03-26T15:14:51.090Z,99395.38
2023-03-26T15:17:32.754Z,99380.41
2023-03-26T15:20:05.083Z,99382.09
2023-03-26T15:22:49.725Z,99380.59
2023-03-26T15:25:38.612Z,99377.94
2023-03-26T15:28:23.578Z,99376.25
2023-03-26T15:31:10.755Z,99370.94
2023-03-26T15:34:14.805Z,99358.66
2023-03-26T15:37:10.823Z,99346.34
2023-03-26T15:40:09.791Z,99349.91
2023-03-26T15:43:10.363Z,99359.69
2023-03-26T15:45:43.726Z,99353.53
2023-03-26T15:48:13.379Z,99344.72
2023-03-26T15:50:45.918Z,99353.63
2023-03-26T15:53:21.308Z,99357.25
2023-03-26T15:56:48.932Z,99348.41
2023-03-26T15:59:38.256Z,99339.72
2023-03-26T16:02:04.805Z,99339.72
2023-03-26T16:04:54.163Z,99333.69
2023-03-26T16:07:58.824Z,99323.06
2023-03-26T16:10:49.906Z,99318.69
2023-03-26T16:13:39.582Z,99313.38
2023-03-26T16:16:15.543Z,99304.69
2023-03-26T16:18:46.930Z,99298.66
2023-03-26T16:21:30.896Z,99296.09
2023-03-26T16:24:08.148Z,99288.12
2023-03-26T16:26:43.184Z,99285.59
2023-03-26T16:29:18.325Z,99282.94
2023-03-26T16:32:10.022Z,99270.63
2023-03-26T16:34:52.890Z,99270.63
2023-03-26T16:37:32.091Z,99271.56
2023-03-26T16:40:21.420Z,99275.16
2023-03-26T16:43:10.320Z,99265.53
2023-03-26T16:45:53.360Z,99271.66
2023-03-26T16:48:28.685Z,99263.84
2023-03-26T16:50:59.097Z,99278.03
2023-03-26T16:53:42.236Z,99278.03
2023-03-26T16:56:16.855Z,99278.97
2023-03-26T16:58:53.753Z,99271.97
2023-03-26T17:01:27.295Z,99279.06
2023-03-26T17:03:59.060Z,99278.22
2023-03-26T17:06:36.818Z,99272.91
2023-03-26T17:09:22.053Z,99279.91
2023-03-26T17:12:40.039Z,99280.09
2023-03-26T17:15:36.836Z,99275.75
2023-03-26T17:18:22.220Z,99279.25
2023-03-26T17:21:02.416Z,99282.13
2023-03-26T17:23:54.308Z,99282.97
2023-03-26T17:26:22.377Z,99288.38
2023-03-26T17:28:51.900Z,99277.84
2023-03-26T17:31:33.105Z,99289.31
2023-03-26T17:34:37.338Z,99284.97
2023-03-26T17:37:16.866Z,99285.91
2023-03-26T17:39:49.178Z,99284.22
2023-03-26T17:42:16.006Z,99286.94
2023-03-26T17:44:47.718Z,99279.00
2023-03-26T17:47:26.025Z,99273.69
2023-03-26T17:50:01.912Z,99279.84
2023-03-26T17:52:49.911Z,99278.25
2023-03-26T17:55:18.934Z,99279.22
2023-03-26T17:57:47.520Z,99288.84
2023-03-26T18:00:41.732Z,99283.66
2023-03-26T18:03:14.440Z,99276.63
2023-03-26T18:05:41.106Z,99282.88
2023-03-26T18:08:41.913Z,99276.84
2023-03-26T18:11:14.370Z,99278.66
2023-03-26T18:14:08.847Z,99284.87
2023-03-26T18:16:38.269Z,99278.72
2023-03-26T18:19:17.511Z,99280.50
2023-03-26T18:21:44.872Z,99285.78
2023-03-26T18:24:14.748Z,99278.78
2023-03-26T18:26:42.782Z,99279.66
2023-03-26T18:29:21.307Z,99272.66
2023-03-26T18:31:49.204Z,99266.50
2023-03-26T18:34:18.885Z,99268.31
2023-03-26T18:37:11.527Z,99269.22
2023-03-26T18:39:38.476Z,99263.09
2023-03-26T18:42:06.147Z,99260.44
2023-03-26T18:44:36.760Z,99250.78
2023-03-26T18:47:07.122Z,99245.50
2023-03-26T18:49:33.886Z,99241.16
2023-03-26T18:52:00.622Z,99238.50
2023-03-26T18:54:27.836Z,99235.00
2023-03-26T18:56:55.137Z,99231.50
2023-03-26T18:59:32.123Z,99223.56
2023-03-26T19:01:59.702Z,99217.41
2023-03-26T19:04:26.682Z,99216.53
2023-03-26T19:06:56.022Z,99212.19
2023-03-26T19:09:31.056Z,99210.50
2023-03-26T19:12:09.276Z,99205.19
2023-03-26T19:14:51.282Z,99204.34
2023-03-26T19:17:17.876Z,99193.03
2023-03-26T19:19:44.596Z,99198.22
2023-03-26T19:22:11.474Z,99197.38
2023-03-26T19:24:38.203Z,99191.22
2023-03-26T19:27:05.443Z,99193.87
2023-03-26T19:29:32.939Z,99191.22
2023-03-26T19:32:04.904Z,99189.50
2023-03-26T19:34:38.583Z,99188.56
2023-03-26T19:37:26.445Z,99191.28
2023-03-26T19:39:54.311Z,99175.50
2023-03-26T19:42:43.338Z,99181.75
2023-03-26T19:45:21.831Z,99165.03
2023-03-26T19:48:00.376Z,99162.44
2023-03-26T19:50:30.877Z,99153.66
2023-03-26T19:53:17.007Z,99150.06
2023-03-26T19:56:18.539Z,99143.06
2023-03-26T19:58:45.331Z,99129.81
2023-03-26T20:01:19.157Z,99135.22
2023-03-26T20:03:49.225Z,99129.94
2023-03-26T20:06:17.752Z,99122.09
2023-03-26T20:08:44.375Z,99112.34
2023-03-26T20:11:25.822Z,99103.63
2023-03-26T20:13:52.681Z,99104.41
2023-03-26T20:16:32.177Z,99099.19
2023-03-26T20:19:02.418Z,99085.09
2023-03-26T20:21:29.206Z,99084.25
2023-03-26T20:23:55.858Z,99085.09
2023-03-26T20:26:23.256Z,99068.47
2023-03-26T20:28:53.432Z,99065.81
2023-03-26T20:31:25.121Z,99064.13
2023-03-26T20:33:53.245Z,99062.22
2023-03-26T20:36:33.965Z,99058.91
2023-03-26T20:39:01.213Z,99054.47
2023-03-26T20:41:27.893Z,99051.94
2023-03-26T20:43:54.543Z,99047.47
2023-03-26T20:46:31.351Z,99046.63
2023-03-26T20:48:59.572Z,99042.19
2023-03-26T20:51:28.510Z,99044.09
2023-03-26T20:53:55.589Z,99038.81
2023-03-26T20:56:22.716Z,99036.16
2023-03-26T20:58:54.788Z,99037.12
2023-03-26T21:01:27.860Z,99031.81
2023-03-26T21:03:54.528Z,99029.16
2023-03-26T21:06:21.096Z,99017.69
2023-03-26T21:08:47.898Z,99017.81
2023-03-26T21:11:29.804Z,99013.47
2023-03-26T21:14:03.697Z,99012.50
2023-03-26T21:16:30.664Z,99016.13
2023-03-26T21:18:57.739Z,99007.41
2023-03-26T21:21:52.569Z,99014.50
2023-03-26T21:24:33.165Z,99012.69
2023-03-26T21:27:16.933Z,99015.47
2023-03-26T21:29:43.790Z,99033.87
2023-03-26T21:32:11.142Z,99041.09
2023-03-26T21:37:07.322Z,99054.34
2023-03-26T21:39:34.205Z,99063.13
2023-03-26T21:42:05.018Z,99054.34
2023-03-26T21:44:33.467Z,99059.62
2023-03-26T21:47:00.379Z,99062.28
2023-03-26T21:49:27.549Z,99071.06
2023-03-26T21:51:54.462Z,99066.72
2023-03-26T21:54:28.915Z,99069.47
2023-03-26T21:57:30.852Z,99062.38
2023-03-26T22:00:37.184Z,99064.19
2023-03-26T22:03:16.098Z,99059.81
2023-03-26T22:06:07.359Z,99057.16
2023-03-26T22:08:38.869Z,99055.47
2023-03-26T22:11:06.609Z,99051.97
2023-03-26T22:13:35.536Z,99051.13
2023-03-26T22:16:02.264Z,99053.78
2023-03-26T22:18:30.007Z,99049.34
2023-03-26T22:20:57.642Z,99046.78
2023-03-26T22:23:26.120Z,99036.19
2023-03-26T22:25:52.969Z,99036.19
2023-03-26T22:28:19.647Z,99031.88
2023-03-26T22:30:46.627Z,99033.63
2023-03-26T22:33:14.450Z,99031.94
2023-03-26T22:35:44.566Z,99033.75
2023-03-26T22:38:11.834Z,99037.25
2023-03-26T22:40:38.734Z,99032.91
2023-03-26T22:43:05.668Z,99031.22
2023-03-26T22:45:32.587Z,99027.72
2023-03-26T22:48:03.713Z,99021.56
2023-03-26T22:50:31.772Z,99020.69
2023-03-26T22:52:58.412Z,99009.25
2023-03-26T22:55:28.800Z,99009.25
2023-03-26T22:57:56.313Z,99004.09
2023-03-26T23:00:22.916Z,98999.62
2023-03-26T23:02:50.036Z,98991.69
2023-03-26T23:05:19.529Z,98990.00
2023-03-26T23:07:46.323Z,98988.31
2023-03-26T23:10:13.036Z,98985.75
2023-03-26T23:12:40.065Z,98983.09
2023-03-26T23:15:07.242Z,98982.25
2023-03-26T23:17:35.528Z,98983.22
2023-03-26T23:20:06.066Z,98984.16
2023-03-26T23:22:35.240Z,98973.56
2023-03-26T23:25:02.043Z,98966.59
2023-03-26T23:27:28.874Z,98965.75
2023-03-26T23:29:55.904Z,98965.75
2023-03-26T23:32:25.232Z,98957.81
2023-03-26T23:34:52.695Z,98957.03
2023-03-26T23:37:23.291Z,98958.84
2023-03-26T23:39:50.987Z,98954.38
2023-03-26T23:42:18.046Z,98952.69
2023-03-26T23:44:56.956Z,98939.47
2023-03-26T23:47:23.869Z,98944.88
2023-03-26T23:49:50.589Z,98942.22
2023-03-26T23:52:17.179Z,98933.53
2023-03-26T23:54:44.706Z,98913.31
2023-03-26T23:57:11.499Z,98920.28
2023-03-26T23:59:38.314Z,98915.00
